createdAt,value
2018-12-20T00:00:12.291Z,6.6
2018-12-20T00:01:12.227Z,3.9
2018-12-20T00:02:12.325Z,3.9
2018-12-20T00:03:12.171Z,3.9
2018-12-20T00:04:12.176Z,9.5
2018-12-20T00:05:12.440Z,9.5
2018-12-20T00:06:12.135Z,6.6
2018-12-20T00:07:12.084Z,9.5
2018-12-20T00:08:12.225Z,6.6
2018-12-20T00:09:12.328Z,6.6
2018-12-20T00:10:12.089Z,3.9
2018-12-20T00:11:12.201Z,3.9
2018-12-20T00:12:12.216Z,3.9
2018-12-20T00:13:12.232Z,3.9
2018-12-20T00:14:12.269Z,3.9
2018-12-20T00:15:12.339Z,9.5
2018-12-20T00:16:12.136Z,6.6
2018-12-20T00:17:12.315Z,9.5
2018-12-20T00:18:12.279Z,6.6
2018-12-20T00:19:12.165Z,3.9
2018-12-20T00:20:12.118Z,3.9
2018-12-20T00:21:12.135Z,3.9
2018-12-20T00:22:12.117Z,3.9
2018-12-20T00:23:12.319Z,3.9
2018-12-20T00:24:12.140Z,6.6
2018-12-20T00:25:12.208Z,6.6
2018-12-20T00:26:12.251Z,6.6
2018-12-20T00:27:12.083Z,6.6
2018-12-20T00:28:12.289Z,6.6
2018-12-20T00:29:12.360Z,6.6
2018-12-20T00:30:12.392Z,6.6
2018-12-20T00:31:14.967Z,3.9
2018-12-20T00:32:12.192Z,3.9
2018-12-20T00:33:12.085Z,3.9
2018-12-20T00:34:12.415Z,3.9
2018-12-20T00:35:12.154Z,3.9
2018-12-20T00:36:12.181Z,1.8
2018-12-20T00:37:12.344Z,1.8
2018-12-20T00:38:12.212Z,0
2018-12-20T00:39:12.207Z,0
2018-12-20T00:40:12.258Z,0
2018-12-20T00:41:12.415Z,0
2018-12-20T00:42:12.166Z,0
2018-12-20T00:43:12.112Z,0
2018-12-20T00:44:12.256Z,0
2018-12-20T00:45:12.149Z,0
2018-12-20T00:46:12.099Z,0
2018-12-20T00:47:12.240Z,0
2018-12-20T00:48:12.143Z,0
2018-12-20T00:49:12.160Z,0
2018-12-20T00:50:12.151Z,0
2018-12-20T00:51:12.057Z,0
2018-12-20T00:52:12.111Z,0
2018-12-20T00:53:12.300Z,1.8
2018-12-20T00:54:12.116Z,0
2018-12-20T00:55:12.207Z,0
2018-12-20T00:56:12.138Z,1.8
2018-12-20T00:57:12.131Z,0
2018-12-20T00:58:12.498Z,0
2018-12-20T00:59:12.236Z,0
2018-12-20T01:00:12.319Z,0
2018-12-20T01:01:12.263Z,0
2018-12-20T01:02:12.330Z,0
2018-12-20T01:03:12.218Z,0
2018-12-20T01:04:12.266Z,0
2018-12-20T01:05:12.243Z,0
2018-12-20T01:06:12.032Z,0
2018-12-20T01:07:12.133Z,0
2018-12-20T01:08:12.199Z,0
2018-12-20T01:09:12.251Z,0
2018-12-20T01:10:12.073Z,0
2018-12-20T01:11:12.242Z,0
2018-12-20T01:12:12.171Z,0
2018-12-20T01:13:12.266Z,0
2018-12-20T01:14:12.282Z,0
2018-12-20T01:15:12.210Z,0
2018-12-20T01:16:12.146Z,0
2018-12-20T01:17:12.156Z,0
2018-12-20T01:18:12.261Z,0
2018-12-20T01:19:12.062Z,0
2018-12-20T01:20:12.191Z,0
2018-12-20T01:21:12.086Z,0
2018-12-20T01:22:12.320Z,0
2018-12-20T01:23:12.258Z,0
2018-12-20T01:24:12.087Z,0
2018-12-20T01:25:12.099Z,0
2018-12-20T01:26:12.117Z,0
2018-12-20T01:27:12.305Z,0
2018-12-20T01:28:12.354Z,1.8
2018-12-20T01:29:12.483Z,3.9
2018-12-20T01:30:12.208Z,1.8
2018-12-20T01:31:12.050Z,1.8
2018-12-20T01:32:12.150Z,0
2018-12-20T01:33:12.153Z,1.8
2018-12-20T01:34:12.163Z,1.8
2018-12-20T01:35:12.068Z,0
2018-12-20T01:36:12.025Z,0
2018-12-20T01:37:14.407Z,0
2018-12-20T01:38:12.086Z,0
2018-12-20T01:39:12.214Z,0
2018-12-20T01:40:12.308Z,0
2018-12-20T01:41:12.176Z,0
2018-12-20T01:42:12.067Z,0
2018-12-20T01:43:12.196Z,0
2018-12-20T01:44:12.131Z,0
2018-12-20T01:45:12.145Z,0
2018-12-20T01:46:12.221Z,0
2018-12-20T01:47:12.055Z,0
2018-12-20T01:48:12.220Z,0
2018-12-20T01:49:12.219Z,0
2018-12-20T01:50:12.094Z,0
2018-12-20T01:51:12.083Z,1.8
2018-12-20T01:52:12.096Z,1.8
2018-12-20T01:53:12.028Z,0
2018-12-20T01:54:12.425Z,0
2018-12-20T01:55:12.046Z,0
2018-12-20T01:56:12.311Z,0
2018-12-20T01:57:12.272Z,0
2018-12-20T01:58:12.038Z,0
2018-12-20T01:59:12.159Z,3.9
2018-12-20T02:00:12.082Z,3.9
2018-12-20T02:01:12.287Z,1.8
2018-12-20T02:02:12.058Z,3.9
2018-12-20T02:03:12.175Z,3.9
2018-12-20T02:04:12.058Z,0
2018-12-20T02:05:12.054Z,0
2018-12-20T02:06:12.103Z,0
2018-12-20T02:07:12.109Z,0
2018-12-20T02:08:12.034Z,0
2018-12-20T02:09:12.287Z,0
2018-12-20T02:10:12.247Z,0
2018-12-20T02:11:12.148Z,0
2018-12-20T02:12:12.211Z,0
2018-12-20T02:13:12.187Z,0
2018-12-20T02:14:12.278Z,0
2018-12-20T02:15:12.044Z,0
2018-12-20T02:16:12.179Z,0
2018-12-20T02:17:12.031Z,0
2018-12-20T02:18:12.157Z,0
2018-12-20T02:19:12.308Z,0
2018-12-20T02:20:12.248Z,0
2018-12-20T02:21:12.347Z,0
2018-12-20T02:22:12.300Z,0
2018-12-20T02:23:12.209Z,0
2018-12-20T02:24:12.046Z,0
2018-12-20T02:25:12.038Z,0
2018-12-20T02:26:12.274Z,1.8
2018-12-20T02:27:12.290Z,0
2018-12-20T02:28:12.035Z,0
2018-12-20T02:29:12.331Z,0
2018-12-20T02:30:12.833Z,0
2018-12-20T02:31:12.145Z,0
2018-12-20T02:32:12.530Z,0
2018-12-20T02:33:12.114Z,0
2018-12-20T02:34:11.988Z,0
2018-12-20T02:35:12.262Z,0
2018-12-20T02:36:12.298Z,1.8
2018-12-20T02:37:12.126Z,1.8
2018-12-20T02:38:12.193Z,1.8
2018-12-20T02:39:12.106Z,1.8
2018-12-20T02:40:12.204Z,0
2018-12-20T02:41:12.379Z,0
2018-12-20T02:42:12.587Z,0
2018-12-20T02:43:12.028Z,0
2018-12-20T02:44:12.268Z,0
2018-12-20T02:45:12.385Z,0
2018-12-20T02:46:12.360Z,0
2018-12-20T02:47:12.019Z,0
2018-12-20T02:48:12.130Z,0
2018-12-20T02:49:12.142Z,0
2018-12-20T02:50:12.309Z,0
2018-12-20T02:51:12.048Z,0
2018-12-20T02:52:12.404Z,0
2018-12-20T02:53:12.160Z,0
2018-12-20T02:54:12.557Z,0
2018-12-20T02:55:12.221Z,0
2018-12-20T02:56:11.990Z,0
2018-12-20T02:57:12.426Z,0
2018-12-20T02:58:12.358Z,0
2018-12-20T02:59:12.359Z,0
2018-12-20T03:00:12.411Z,0
2018-12-20T03:01:12.131Z,0
2018-12-20T03:02:12.075Z,0
2018-12-20T03:03:12.078Z,0
2018-12-20T03:04:12.415Z,0
2018-12-20T03:05:12.449Z,0
2018-12-20T03:06:12.088Z,1.8
2018-12-20T03:07:12.401Z,1.8
2018-12-20T03:08:12.000Z,0
2018-12-20T03:09:12.088Z,0
2018-12-20T03:10:11.979Z,0
2018-12-20T03:11:12.517Z,0
2018-12-20T03:12:12.001Z,0
2018-12-20T03:13:12.316Z,0
2018-12-20T03:14:12.428Z,0
2018-12-20T03:15:21.125Z,0
2018-12-20T03:16:12.165Z,0
2018-12-20T03:17:12.326Z,0
2018-12-20T03:18:12.434Z,0
2018-12-20T03:19:12.219Z,0
2018-12-20T03:20:12.328Z,0
2018-12-20T03:21:12.144Z,1.8
2018-12-20T03:22:12.485Z,0
2018-12-20T03:23:12.209Z,0
2018-12-20T03:24:12.094Z,0
2018-12-20T03:25:12.114Z,0
2018-12-20T03:26:12.057Z,0
2018-12-20T03:27:12.123Z,0
2018-12-20T03:28:12.134Z,0
2018-12-20T03:29:12.506Z,0
2018-12-20T03:30:12.088Z,0
2018-12-20T03:31:12.656Z,0
2018-12-20T03:32:12.329Z,1.8
2018-12-20T03:33:12.039Z,1.8
2018-12-20T03:34:12.287Z,0
2018-12-20T03:35:12.259Z,0
2018-12-20T03:36:12.143Z,0
2018-12-20T03:37:12.321Z,0
2018-12-20T03:38:11.989Z,0
2018-12-20T03:39:12.034Z,0
2018-12-20T03:40:12.273Z,0
2018-12-20T03:41:11.995Z,0
2018-12-20T03:42:12.232Z,0
2018-12-20T03:43:12.269Z,0
2018-12-20T03:44:11.931Z,0
2018-12-20T03:45:14.501Z,0
2018-12-20T03:46:12.274Z,0
2018-12-20T03:47:12.193Z,0
2018-12-20T03:48:12.337Z,0
2018-12-20T03:49:12.386Z,0
2018-12-20T03:50:12.283Z,1.8
2018-12-20T03:51:12.216Z,0
2018-12-20T03:52:12.178Z,0
2018-12-20T03:53:12.182Z,0
2018-12-20T03:54:12.095Z,0
2018-12-20T03:55:12.184Z,0
2018-12-20T03:56:12.390Z,0
2018-12-20T03:57:12.450Z,0
2018-12-20T03:58:12.304Z,0
2018-12-20T03:59:12.388Z,0
2018-12-20T04:00:12.130Z,0
2018-12-20T04:01:12.010Z,0
2018-12-20T04:02:12.262Z,0
2018-12-20T04:03:12.185Z,0
2018-12-20T04:04:11.994Z,0
2018-12-20T04:05:12.229Z,0
2018-12-20T04:06:12.335Z,0
2018-12-20T04:07:12.177Z,0
2018-12-20T04:08:12.218Z,0
2018-12-20T04:09:12.129Z,0
2018-12-20T04:10:12.409Z,0
2018-12-20T04:11:12.203Z,0
2018-12-20T04:12:11.975Z,0
2018-12-20T04:13:12.508Z,0
2018-12-20T04:14:12.525Z,0
2018-12-20T04:15:12.377Z,0
2018-12-20T04:16:12.094Z,0
2018-12-20T04:17:11.984Z,0
2018-12-20T04:18:12.108Z,0
2018-12-20T04:19:12.455Z,0
2018-12-20T04:20:12.190Z,0
2018-12-20T04:21:12.385Z,0
2018-12-20T04:22:12.404Z,0
2018-12-20T04:23:12.008Z,0
2018-12-20T04:24:11.946Z,0
2018-12-20T04:25:12.182Z,0
2018-12-20T04:26:12.203Z,0
2018-12-20T04:27:12.125Z,0
2018-12-20T04:28:12.325Z,0
2018-12-20T04:29:12.039Z,0
2018-12-20T04:30:12.103Z,0
2018-12-20T04:31:12.095Z,0
2018-12-20T04:32:12.250Z,0
2018-12-20T04:33:12.086Z,0
2018-12-20T04:34:12.127Z,0
2018-12-20T04:35:12.193Z,0
2018-12-20T04:36:12.631Z,0
2018-12-20T04:37:12.105Z,0
2018-12-20T04:38:12.074Z,0
2018-12-20T04:39:12.019Z,0
2018-12-20T04:40:12.171Z,0
2018-12-20T04:41:12.154Z,0
2018-12-20T04:42:11.971Z,0
2018-12-20T04:43:12.409Z,0
2018-12-20T04:44:12.394Z,0
2018-12-20T04:45:12.282Z,0
2018-12-20T04:46:12.392Z,0
2018-12-20T04:47:11.997Z,0
2018-12-20T04:48:11.935Z,0
2018-12-20T04:49:12.127Z,0
2018-12-20T04:50:12.190Z,0
2018-12-20T04:51:11.996Z,0
2018-12-20T04:52:12.399Z,0
2018-12-20T04:53:11.962Z,0
2018-12-20T04:54:12.115Z,0
2018-12-20T04:55:12.000Z,0
2018-12-20T04:56:12.345Z,0
2018-12-20T04:57:12.385Z,0
2018-12-20T04:58:12.011Z,0
2018-12-20T04:59:12.020Z,0
2018-12-20T05:00:12.329Z,0
2018-12-20T05:01:12.357Z,0
2018-12-20T05:02:12.035Z,0
2018-12-20T05:03:12.248Z,0
2018-12-20T05:04:12.375Z,0
2018-12-20T05:05:12.146Z,0
2018-12-20T05:06:12.075Z,0
2018-12-20T05:07:11.943Z,0
2018-12-20T05:08:12.152Z,0
2018-12-20T05:09:12.565Z,0
2018-12-20T05:10:12.274Z,0
2018-12-20T05:11:12.132Z,0
2018-12-20T05:12:12.502Z,0
2018-12-20T05:13:12.577Z,0
2018-12-20T05:14:12.074Z,0
2018-12-20T05:15:12.186Z,0
2018-12-20T05:16:11.955Z,0
2018-12-20T05:17:11.977Z,0
2018-12-20T05:18:11.877Z,0
2018-12-20T05:19:12.353Z,0
2018-12-20T05:20:12.318Z,0
2018-12-20T05:21:12.349Z,0
2018-12-20T05:22:12.272Z,0
2018-12-20T05:23:12.145Z,0
2018-12-20T05:24:12.226Z,0
2018-12-20T05:25:11.954Z,0
2018-12-20T05:26:12.250Z,0
2018-12-20T05:27:12.439Z,0
2018-12-20T05:28:12.210Z,0
2018-12-20T05:29:12.393Z,0
2018-12-20T05:30:12.490Z,0
2018-12-20T05:31:11.900Z,0
2018-12-20T05:32:12.331Z,0
2018-12-20T05:33:12.165Z,0
2018-12-20T05:34:11.960Z,0
2018-12-20T05:35:12.138Z,0
2018-12-20T05:36:12.187Z,0
2018-12-20T05:37:12.346Z,0
2018-12-20T05:38:12.333Z,0
2018-12-20T05:39:11.948Z,0
2018-12-20T05:40:12.277Z,0
2018-12-20T05:41:12.245Z,0
2018-12-20T05:42:11.940Z,0
2018-12-20T05:43:12.101Z,0
2018-12-20T05:44:12.076Z,0
2018-12-20T05:45:12.224Z,0
2018-12-20T05:46:12.264Z,0
2018-12-20T05:47:12.208Z,0
2018-12-20T05:48:11.940Z,0
2018-12-20T05:49:11.959Z,0
2018-12-20T05:50:12.073Z,0
2018-12-20T05:51:11.980Z,0
2018-12-20T05:52:11.952Z,0
2018-12-20T05:53:11.996Z,0
2018-12-20T05:54:12.293Z,0
2018-12-20T05:55:12.025Z,0
2018-12-20T05:56:12.127Z,0
2018-12-20T05:57:11.888Z,0
2018-12-20T05:58:11.936Z,0
2018-12-20T05:59:11.988Z,0
2018-12-20T06:00:12.217Z,0
2018-12-20T06:01:12.331Z,0
2018-12-20T06:02:12.051Z,0
2018-12-20T06:03:12.106Z,0
2018-12-20T06:04:12.906Z,0
2018-12-20T06:05:12.088Z,0
2018-12-20T06:06:12.288Z,0
2018-12-20T06:07:12.053Z,0
2018-12-20T06:08:11.952Z,0
2018-12-20T06:09:11.992Z,1.8
2018-12-20T06:10:12.291Z,0
2018-12-20T06:11:12.235Z,0
2018-12-20T06:12:12.065Z,0
2018-12-20T06:13:12.322Z,0
2018-12-20T06:14:12.118Z,0
2018-12-20T06:15:12.021Z,0
2018-12-20T06:16:14.315Z,0
2018-12-20T06:17:12.207Z,0
2018-12-20T06:18:12.110Z,1.8
2018-12-20T06:19:12.093Z,1.8
2018-12-20T06:20:12.390Z,0
2018-12-20T06:21:12.064Z,0
2018-12-20T06:22:11.925Z,0
2018-12-20T06:23:11.859Z,3.9
2018-12-20T06:24:11.903Z,3.9
2018-12-20T06:25:11.919Z,3.9
2018-12-20T06:26:11.894Z,3.9
2018-12-20T06:27:11.946Z,6.6
2018-12-20T06:28:11.819Z,9.5
2018-12-20T06:29:11.860Z,6.6
2018-12-20T06:30:11.956Z,9.5
2018-12-20T06:31:12.031Z,6.6
2018-12-20T06:32:11.879Z,6.6
2018-12-20T06:33:11.857Z,9.5
2018-12-20T06:34:11.944Z,6.6
2018-12-20T06:35:11.864Z,3.9
2018-12-20T06:36:11.825Z,3.9
2018-12-20T06:37:11.916Z,1.8
2018-12-20T06:38:11.959Z,1.8
2018-12-20T06:39:11.877Z,1.8
2018-12-20T06:40:11.908Z,1.8
2018-12-20T06:41:11.972Z,0
2018-12-20T06:42:11.892Z,0
2018-12-20T06:43:11.932Z,3.9
2018-12-20T06:44:11.834Z,12.4
2018-12-20T06:45:11.861Z,6.6
2018-12-20T06:46:11.939Z,12.4
2018-12-20T06:47:11.869Z,15.4
2018-12-20T06:48:11.847Z,18.3
2018-12-20T06:49:11.970Z,15.4
2018-12-20T06:50:11.894Z,15.4
2018-12-20T06:51:11.923Z,12.4
2018-12-20T06:52:11.885Z,9.5
2018-12-20T06:53:11.853Z,15.4
2018-12-20T06:54:12.035Z,12.4
2018-12-20T06:55:11.867Z,12.4
2018-12-20T06:56:11.905Z,6.6
2018-12-20T06:57:11.842Z,3.9
2018-12-20T06:58:11.847Z,12.4
2018-12-20T06:59:11.922Z,1.8
2018-12-20T07:00:11.896Z,0
2018-12-20T07:01:11.812Z,1.8
2018-12-20T07:02:11.863Z,0
2018-12-20T07:03:11.921Z,0
2018-12-20T07:04:11.974Z,0
2018-12-20T07:05:11.845Z,0
2018-12-20T07:06:11.895Z,0
2018-12-20T07:07:11.836Z,0
2018-12-20T07:08:11.898Z,0
2018-12-20T07:09:11.883Z,0
2018-12-20T07:10:11.883Z,0
2018-12-20T07:11:11.922Z,0
2018-12-20T07:12:11.837Z,0
2018-12-20T07:13:11.863Z,0
2018-12-20T07:14:11.889Z,0
2018-12-20T07:15:11.860Z,0
2018-12-20T07:16:11.922Z,0
2018-12-20T07:17:11.810Z,0
2018-12-20T07:18:11.861Z,0
2018-12-20T07:19:11.821Z,0
2018-12-20T07:20:11.829Z,1.8
2018-12-20T07:21:11.906Z,3.9
2018-12-20T07:22:11.841Z,3.9
2018-12-20T07:23:11.819Z,12.4
2018-12-20T07:24:11.868Z,12.4
2018-12-20T07:25:11.883Z,9.5
2018-12-20T07:26:11.909Z,12.4
2018-12-20T07:27:11.971Z,12.4
2018-12-20T07:28:11.817Z,9.5
2018-12-20T07:29:11.858Z,12.4
2018-12-20T07:30:11.865Z,9.5
2018-12-20T07:31:11.953Z,9.5
2018-12-20T07:32:11.841Z,9.5
2018-12-20T07:33:11.844Z,6.6
2018-12-20T07:34:11.817Z,6.6
2018-12-20T07:35:11.892Z,6.6
2018-12-20T07:36:11.877Z,3.9
2018-12-20T07:37:11.854Z,6.6
2018-12-20T07:38:11.896Z,3.9
2018-12-20T07:39:11.855Z,6.6
2018-12-20T07:40:11.856Z,3.9
2018-12-20T07:41:11.912Z,9.5
2018-12-20T07:42:11.860Z,3.9
2018-12-20T07:43:11.822Z,0
2018-12-20T07:44:11.882Z,0
2018-12-20T07:45:11.805Z,0
2018-12-20T07:46:11.828Z,0
2018-12-20T07:47:11.878Z,0
2018-12-20T07:48:11.850Z,0
2018-12-20T07:49:11.882Z,0
2018-12-20T07:50:11.807Z,0
2018-12-20T07:51:11.839Z,0
2018-12-20T07:52:11.838Z,0
2018-12-20T07:53:11.901Z,0
2018-12-20T07:54:11.828Z,0
2018-12-20T07:55:11.793Z,0
2018-12-20T07:56:11.874Z,0
2018-12-20T07:57:11.826Z,0
2018-12-20T07:58:11.913Z,0
2018-12-20T07:59:11.823Z,0
2018-12-20T08:00:11.846Z,0
2018-12-20T08:01:11.823Z,0
2018-12-20T08:02:11.819Z,0
2018-12-20T08:03:11.865Z,0
2018-12-20T08:04:11.801Z,0
2018-12-20T08:05:11.804Z,0
2018-12-20T08:06:11.798Z,0
2018-12-20T08:07:11.811Z,0
2018-12-20T08:08:11.904Z,1.8
2018-12-20T08:09:11.824Z,6.6
2018-12-20T08:10:11.863Z,6.6
2018-12-20T08:11:11.858Z,6.6
2018-12-20T08:12:11.809Z,9.5
2018-12-20T08:13:11.827Z,9.5
2018-12-20T08:14:11.819Z,9.5
2018-12-20T08:15:11.871Z,9.5
2018-12-20T08:16:11.806Z,9.5
2018-12-20T08:17:11.782Z,9.5
2018-12-20T08:18:11.856Z,9.5
2018-12-20T08:19:11.826Z,6.6
2018-12-20T08:20:11.904Z,12.4
2018-12-20T08:21:11.804Z,6.6
2018-12-20T08:22:11.826Z,1.8
2018-12-20T08:23:11.848Z,0
2018-12-20T08:24:11.799Z,0
2018-12-20T08:25:11.862Z,3.9
2018-12-20T08:26:11.865Z,9.5
2018-12-20T08:27:11.839Z,6.6
2018-12-20T08:28:11.771Z,12.4
2018-12-20T08:29:11.827Z,9.5
2018-12-20T08:30:11.884Z,6.6
2018-12-20T08:31:11.833Z,6.6
2018-12-20T08:32:11.890Z,3.9
2018-12-20T08:33:11.848Z,3.9
2018-12-20T08:34:11.791Z,3.9
2018-12-20T08:35:11.892Z,12.4
2018-12-20T08:36:11.810Z,6.6
2018-12-20T08:37:11.815Z,9.5
2018-12-20T08:38:11.810Z,12.4
2018-12-20T08:39:11.828Z,12.4
2018-12-20T08:40:11.788Z,9.5
2018-12-20T08:41:11.867Z,6.6
2018-12-20T08:42:11.823Z,6.6
2018-12-20T08:43:11.865Z,6.6
2018-12-20T08:44:11.817Z,6.6
2018-12-20T08:45:11.772Z,9.5
2018-12-20T08:46:11.827Z,9.5
2018-12-20T08:47:11.872Z,12.4
2018-12-20T08:48:11.844Z,12.4
2018-12-20T08:49:11.833Z,9.5
2018-12-20T08:50:11.817Z,9.5
2018-12-20T08:51:11.784Z,9.5
2018-12-20T08:52:11.872Z,18.3
2018-12-20T08:53:11.874Z,18.3
2018-12-20T08:54:11.812Z,15.4
2018-12-20T08:55:11.753Z,15.4
2018-12-20T08:56:11.813Z,12.4
2018-12-20T08:57:11.835Z,15.4
2018-12-20T08:58:11.897Z,12.4
2018-12-20T08:59:11.775Z,12.4
2018-12-20T09:00:11.811Z,12.4
2018-12-20T09:01:11.781Z,9.5
2018-12-20T09:02:11.887Z,3.9
2018-12-20T09:03:11.815Z,12.4
2018-12-20T09:04:11.805Z,12.4
2018-12-20T09:05:11.808Z,9.5
2018-12-20T09:06:11.829Z,12.4
2018-12-20T09:07:11.787Z,12.4
2018-12-20T09:08:11.795Z,9.5
2018-12-20T09:09:11.850Z,15.4
2018-12-20T09:10:11.826Z,6.6
2018-12-20T09:11:11.764Z,9.5
2018-12-20T09:12:11.801Z,12.4
2018-12-20T09:13:11.874Z,12.4
2018-12-20T09:14:11.770Z,12.4
2018-12-20T09:15:11.808Z,12.4
2018-12-20T09:16:11.792Z,9.5
2018-12-20T09:17:11.742Z,9.5
2018-12-20T09:18:12.028Z,9.5
2018-12-20T09:19:11.799Z,12.4
2018-12-20T09:20:11.862Z,9.5
2018-12-20T09:21:11.844Z,9.5
2018-12-20T09:22:11.769Z,12.4
2018-12-20T09:23:11.772Z,12.4
2018-12-20T09:24:11.864Z,12.4
2018-12-20T09:25:11.853Z,9.5
2018-12-20T09:26:11.795Z,6.6
2018-12-20T09:27:11.793Z,6.6
2018-12-20T09:28:11.733Z,6.6
2018-12-20T09:29:11.844Z,9.5
2018-12-20T09:30:11.767Z,6.6
2018-12-20T09:31:11.813Z,6.6
2018-12-20T09:32:11.812Z,6.6
2018-12-20T09:33:11.763Z,6.6
2018-12-20T09:34:11.817Z,1.8
2018-12-20T09:35:11.762Z,1.8
2018-12-20T09:36:11.857Z,3.9
2018-12-20T09:37:11.802Z,1.8
2018-12-20T09:38:11.816Z,6.6
2018-12-20T09:39:11.822Z,6.6
2018-12-20T09:40:11.781Z,1.8
2018-12-20T09:41:11.854Z,3.9
2018-12-20T09:42:11.813Z,1.8
2018-12-20T09:43:11.781Z,1.8
2018-12-20T09:44:11.796Z,1.8
2018-12-20T09:45:11.839Z,1.8
2018-12-20T09:46:11.773Z,1.8
2018-12-20T09:47:13.332Z,1.8
2018-12-20T09:48:11.803Z,1.8
2018-12-20T09:49:11.826Z,1.8
2018-12-20T09:50:11.737Z,1.8
2018-12-20T09:51:11.844Z,1.8
2018-12-20T09:52:11.778Z,3.9
2018-12-20T09:53:11.845Z,0
2018-12-20T09:54:11.786Z,3.9
2018-12-20T09:55:11.770Z,1.8
2018-12-20T09:56:11.823Z,0
2018-12-20T09:57:11.782Z,1.8
2018-12-20T09:58:11.899Z,1.8
2018-12-20T09:59:11.821Z,1.8
2018-12-20T10:00:11.792Z,3.9
2018-12-20T10:01:11.762Z,6.6
2018-12-20T10:02:11.778Z,3.9
2018-12-20T10:03:11.781Z,3.9
2018-12-20T10:04:11.854Z,3.9
2018-12-20T10:05:11.779Z,1.8
2018-12-20T10:06:11.760Z,3.9
2018-12-20T10:07:11.836Z,3.9
2018-12-20T10:08:11.752Z,3.9
2018-12-20T10:09:11.801Z,3.9
2018-12-20T10:10:11.884Z,3.9
2018-12-20T10:11:11.737Z,3.9
2018-12-20T10:12:11.775Z,3.9
2018-12-20T10:13:11.836Z,3.9
2018-12-20T10:14:11.756Z,6.6
2018-12-20T10:15:11.801Z,3.9
2018-12-20T10:16:11.832Z,3.9
2018-12-20T10:17:19.666Z,6.6
2018-12-20T10:18:11.788Z,6.6
2018-12-20T10:19:11.840Z,3.9
2018-12-20T10:20:11.827Z,3.9
2018-12-20T10:21:11.770Z,3.9
2018-12-20T10:22:11.729Z,3.9
2018-12-20T10:23:11.801Z,6.6
2018-12-20T10:24:11.769Z,6.6
2018-12-20T10:25:11.774Z,3.9
2018-12-20T10:26:11.776Z,3.9
2018-12-20T10:27:11.764Z,3.9
2018-12-20T10:28:11.812Z,3.9
2018-12-20T10:29:11.771Z,6.6
2018-12-20T10:30:11.750Z,3.9
2018-12-20T10:31:11.796Z,3.9
2018-12-20T10:32:11.760Z,3.9
2018-12-20T10:33:11.778Z,9.5
2018-12-20T10:34:11.838Z,9.5
2018-12-20T10:35:11.771Z,6.6
2018-12-20T10:36:11.796Z,6.6
2018-12-20T10:37:11.786Z,3.9
2018-12-20T10:38:11.815Z,9.5
2018-12-20T10:39:11.737Z,12.4
2018-12-20T10:40:11.724Z,12.4
2018-12-20T10:41:11.877Z,15.4
2018-12-20T10:42:11.770Z,18.3
2018-12-20T10:43:11.737Z,15.4
2018-12-20T10:44:11.758Z,18.3
2018-12-20T10:45:11.783Z,18.3
2018-12-20T10:46:11.736Z,12.4
2018-12-20T10:47:11.849Z,18.3
2018-12-20T10:48:11.761Z,12.4
2018-12-20T10:49:11.727Z,15.4
2018-12-20T10:50:11.725Z,18.3
2018-12-20T10:51:11.761Z,15.4
2018-12-20T10:52:11.822Z,18.3
2018-12-20T10:53:11.797Z,18.3
2018-12-20T10:54:11.723Z,12.4
2018-12-20T10:55:11.705Z,12.4
2018-12-20T10:56:11.726Z,9.5
2018-12-20T10:57:11.781Z,21.3
2018-12-20T10:58:11.734Z,24.3
2018-12-20T10:59:11.867Z,21.3
2018-12-20T11:00:11.762Z,18.3
2018-12-20T11:01:11.694Z,21.3
2018-12-20T11:02:11.748Z,21.3
2018-12-20T11:03:11.778Z,21.3
2018-12-20T11:04:11.780Z,18.3
2018-12-20T11:05:11.786Z,27.3
2018-12-20T11:06:11.750Z,24.3
2018-12-20T11:07:11.729Z,21.3
2018-12-20T11:08:11.747Z,21.3
2018-12-20T11:09:11.816Z,12.4
2018-12-20T11:10:11.731Z,18.3
2018-12-20T11:11:11.738Z,15.4
2018-12-20T11:12:11.765Z,12.4
2018-12-20T11:13:11.790Z,15.4
2018-12-20T11:14:11.743Z,24.3
2018-12-20T11:15:11.722Z,24.3
2018-12-20T11:16:11.716Z,18.3
2018-12-20T11:17:11.705Z,27.3
2018-12-20T11:18:11.795Z,18.3
2018-12-20T11:19:11.765Z,12.4
2018-12-20T11:20:11.775Z,15.4
2018-12-20T11:21:11.746Z,18.3
2018-12-20T11:22:11.714Z,21.3
2018-12-20T11:23:11.710Z,12.4
2018-12-20T11:24:11.812Z,24.3
2018-12-20T11:25:11.826Z,33.3
2018-12-20T11:26:11.758Z,24.3
2018-12-20T11:27:11.738Z,27.3
2018-12-20T11:28:11.680Z,21.3
2018-12-20T11:29:11.759Z,27.3
2018-12-20T11:30:11.740Z,24.3
2018-12-20T11:31:12.345Z,18.3
2018-12-20T11:32:11.782Z,15.4
2018-12-20T11:33:11.685Z,18.3
2018-12-20T11:34:11.736Z,27.3
2018-12-20T11:35:11.735Z,21.3
2018-12-20T11:36:11.841Z,18.3
2018-12-20T11:37:11.742Z,15.4
2018-12-20T11:38:11.706Z,21.3
2018-12-20T11:39:11.696Z,18.3
2018-12-20T11:40:11.728Z,21.3
2018-12-20T11:41:11.798Z,15.4
2018-12-20T11:42:11.767Z,24.3
2018-12-20T11:43:11.816Z,21.3
2018-12-20T11:44:11.682Z,24.3
2018-12-20T11:45:11.748Z,24.3
2018-12-20T11:46:11.745Z,24.3
2018-12-20T11:47:11.714Z,30.3
2018-12-20T11:48:11.788Z,18.3
2018-12-20T11:49:11.715Z,21.3
2018-12-20T11:50:11.723Z,24.3
2018-12-20T11:51:11.730Z,24.3
2018-12-20T11:52:11.819Z,24.3
2018-12-20T11:53:11.832Z,15.4
2018-12-20T11:54:11.697Z,21.3
2018-12-20T11:55:11.762Z,21.3
2018-12-20T11:56:11.705Z,27.3
2018-12-20T11:57:11.724Z,27.3
2018-12-20T11:58:11.719Z,21.3
2018-12-20T11:59:11.795Z,15.4
2018-12-20T12:00:11.708Z,15.4
2018-12-20T12:01:11.696Z,15.4
2018-12-20T12:02:11.698Z,12.4
2018-12-20T12:03:11.813Z,15.4
2018-12-20T12:04:11.768Z,15.4
2018-12-20T12:05:11.738Z,12.4
2018-12-20T12:06:11.669Z,15.4
2018-12-20T12:07:11.796Z,9.5
2018-12-20T12:08:11.692Z,9.5
2018-12-20T12:09:11.815Z,3.9
2018-12-20T12:10:11.721Z,9.5
2018-12-20T12:11:11.742Z,12.4
2018-12-20T12:12:11.730Z,12.4
2018-12-20T12:13:11.704Z,15.4
2018-12-20T12:14:11.794Z,18.3
2018-12-20T12:15:11.688Z,15.4
2018-12-20T12:16:11.699Z,15.4
2018-12-20T12:17:11.784Z,15.4
2018-12-20T12:18:11.698Z,15.4
2018-12-20T12:19:11.731Z,21.3
2018-12-20T12:20:11.803Z,15.4
2018-12-20T12:21:11.784Z,24.3
2018-12-20T12:22:11.697Z,24.3
2018-12-20T12:23:11.823Z,27.3
2018-12-20T12:24:11.700Z,24.3
2018-12-20T12:25:11.734Z,24.3
2018-12-20T12:26:11.755Z,24.3
2018-12-20T12:27:11.774Z,24.3
2018-12-20T12:28:11.691Z,24.3
2018-12-20T12:29:11.699Z,24.3
2018-12-20T12:30:11.716Z,24.3
2018-12-20T12:31:11.769Z,12.4
2018-12-20T12:32:11.687Z,12.4
2018-12-20T12:33:11.702Z,21.3
2018-12-20T12:34:11.676Z,15.4
2018-12-20T12:35:11.704Z,18.3
2018-12-20T12:36:11.787Z,18.3
2018-12-20T12:37:11.696Z,21.3
2018-12-20T12:38:11.722Z,24.3
2018-12-20T12:39:11.775Z,18.3
2018-12-20T12:40:11.740Z,15.4
2018-12-20T12:41:11.705Z,12.4
2018-12-20T12:42:11.721Z,12.4
2018-12-20T12:43:11.666Z,24.3
2018-12-20T12:44:11.750Z,24.3
2018-12-20T12:45:11.721Z,21.3
2018-12-20T12:46:11.716Z,24.3
2018-12-20T12:47:13.856Z,21.3
2018-12-20T12:48:11.715Z,15.4
2018-12-20T12:49:11.761Z,12.4
2018-12-20T12:50:11.669Z,21.3
2018-12-20T12:51:11.688Z,18.3
2018-12-20T12:52:11.699Z,21.3
2018-12-20T12:53:11.698Z,12.4
2018-12-20T12:54:11.765Z,15.4
2018-12-20T12:55:11.730Z,21.3
2018-12-20T12:56:11.715Z,24.3
2018-12-20T12:57:11.701Z,18.3
2018-12-20T12:58:11.779Z,15.4
2018-12-20T12:59:11.743Z,15.4
2018-12-20T13:00:11.665Z,21.3
2018-12-20T13:01:11.694Z,21.3
2018-12-20T13:02:11.704Z,18.3
2018-12-20T13:03:11.734Z,30.3
2018-12-20T13:04:11.704Z,30.3
2018-12-20T13:05:11.741Z,18.3
2018-12-20T13:06:11.645Z,9.5
2018-12-20T13:07:11.705Z,18.3
2018-12-20T13:08:11.684Z,12.4
2018-12-20T13:09:11.690Z,18.3
2018-12-20T13:10:11.754Z,12.4
2018-12-20T13:11:11.660Z,12.4
2018-12-20T13:12:11.651Z,12.4
2018-12-20T13:13:11.660Z,3.9
2018-12-20T13:14:11.726Z,6.6
2018-12-20T13:15:11.802Z,9.5
2018-12-20T13:16:11.698Z,9.5
2018-12-20T13:17:11.714Z,1.8
2018-12-20T13:18:15.269Z,6.6
2018-12-20T13:19:11.719Z,3.9
2018-12-20T13:20:11.762Z,9.5
2018-12-20T13:21:11.733Z,6.6
2018-12-20T13:22:11.649Z,15.4
2018-12-20T13:23:11.693Z,9.5
2018-12-20T13:24:17.914Z,15.4
2018-12-20T13:25:16.788Z,15.4
2018-12-20T13:26:13.796Z,18.3
2018-12-20T13:27:13.785Z,18.3
2018-12-20T13:28:14.659Z,21.3
2018-12-20T13:29:14.569Z,12.4
2018-12-20T13:30:11.683Z,12.4
2018-12-20T13:31:11.703Z,9.5
2018-12-20T13:32:14.735Z,9.5
2018-12-20T13:33:13.209Z,12.4
2018-12-20T13:34:11.836Z,12.4
2018-12-20T13:35:11.726Z,6.6
2018-12-20T13:36:11.682Z,12.4
2018-12-20T13:37:17.192Z,9.5
2018-12-20T13:38:11.752Z,15.4
2018-12-20T13:39:11.674Z,24.3
2018-12-20T13:40:11.724Z,21.3
2018-12-20T13:41:11.759Z,9.5
2018-12-20T13:42:11.709Z,9.5
2018-12-20T13:43:11.655Z,15.4
2018-12-20T13:44:11.638Z,24.3
2018-12-20T13:45:11.735Z,24.3
2018-12-20T13:46:11.743Z,21.3
2018-12-20T13:47:11.695Z,15.4
2018-12-20T13:48:11.699Z,24.3
2018-12-20T13:49:11.703Z,21.3
2018-12-20T13:50:11.630Z,21.3
2018-12-20T13:51:11.752Z,21.3
2018-12-20T13:52:11.673Z,15.4
2018-12-20T13:53:11.664Z,12.4
2018-12-20T13:54:11.864Z,15.4
2018-12-20T13:55:11.674Z,12.4
2018-12-20T13:56:11.796Z,15.4
2018-12-20T13:57:11.708Z,18.3
2018-12-20T13:58:11.639Z,15.4
2018-12-20T13:59:11.672Z,18.3
2018-12-20T14:00:11.675Z,15.4
2018-12-20T14:01:11.719Z,30.3
2018-12-20T14:02:11.709Z,21.3
2018-12-20T14:03:11.672Z,18.3